Tom Frazier — WDD4376 — position and weather

sailwx.info

Track history (hours):
 
Tides and Currents Weather Stations Pressure Air Temp Water Temp Dewpoint Dewpoint Depression Visibility Wind Speed Wind Dir Waves Ship Positions

Tom Frazier

Owner: American Commercial Lines LLC, Jeffersonville, IN. More information available from US FCC via Universal Licensing System and Coast Guard Vessel Documentation Center.

Last reported at 2015-Apr-09 01:10 UTC. Time now 2015-Apr-18 16:43 UTC.
Position N 38°56' W 084°52'.
Warning: this ship's position is 9 days out of date.

Length 48 m; draft 2.9 m.

MMSI: 367143910.

Date/timePositionNaut miles runAvg speedWind from/ knotsBaromVisibWave heightAir tempDewpointWater temp
2015-Apr-09 01:10N 38°56' W 084°52'9 5.4
2015-Apr-08 23:32N 39°04' W 084°52'6 6.5
2015-Apr-08 22:32N 39°08' W 084°46'4 4.1
2015-Apr-08 21:32N 39°06' W 084°41'0 0.0
2015-Apr-08 20:31N 39°06' W 084°41'0 0.0
2015-Apr-08 19:28N 39°06' W 084°41'0 0.1
2015-Apr-08 18:31N 39°06' W 084°41'0 0.1
2015-Apr-08 17:32N 39°06' W 084°41'0 0.0
2015-Apr-08 16:31N 39°06' W 084°41'0 0.1
2015-Apr-08 15:33N 39°06' W 084°41'0 0.0
2015-Apr-08 14:33N 39°06' W 084°41'3 2.5
2015-Apr-08 13:33N 39°05' W 084°38'4 4.2
2015-Apr-08 12:32N 39°06' W 084°33'5 5.2
2015-Apr-08 11:33N 39°06' W 084°26'6 5.9
2015-Apr-08 10:33N 39°02' W 084°21'6 6.3
2015-Apr-08 09:33N 38°57' W 084°17'6 6.3
2015-Apr-08 08:33N 38°51' W 084°14'4 4.1
2015-Apr-08 07:33N 38°48' W 084°11'0 0.0
2015-Apr-08 06:28N 38°48' W 084°11'0 0.1
2015-Apr-08 05:30N 38°48' W 084°11'0 0.0
2015-Apr-08 04:33N 38°48' W 084°11'0 0.3
2015-Apr-08 03:32N 38°48' W 084°10'3 2.6
2015-Apr-08 02:33N 38°47' W 084°07'9 6.4
2015-Apr-08 01:13N 38°47' W 083°56'4 5.8
2015-Apr-08 00:31N 38°45' W 083°51'77 4.0
2015-Apr-07 05:29N 38°47' W 082°13'5 5.6
2015-Apr-07 04:32N 38°50' W 082°08'0 0.1
2015-Apr-07 03:29N 38°50' W 082°08'0 0.0
2015-Apr-07 02:28N 38°50' W 082°08'0 0.0
2015-Apr-07 01:31N 38°50' W 082°08'1 1.4
2015-Apr-07 00:28N 38°49' W 082°10'1 1.1
2015-Apr-06 23:29N 38°49' W 082°11'3 3.3
2015-Apr-06 22:28N 38°46' W 082°12'53 1.6
2015-Apr-05 13:27N 38°38' W 083°19'3 2.9
2015-Apr-05 12:33N 38°39' W 083°22'3 3.3
2015-Apr-05 11:33N 38°40' W 083°26'3 3.1
2015-Apr-05 10:33N 38°41' W 083°30'10 3.2
2015-Apr-05 07:33N 38°38' W 083°41'4 3.3
2015-Apr-05 06:22N 38°39' W 083°46'3 3.5
2015-Apr-05 05:29N 38°42' W 083°47'4 3.2
2015-Apr-05 04:19N 38°44' W 083°51'3 3.4
2015-Apr-05 03:27N 38°46' W 083°54'11 3.6
2015-Apr-05 00:21N 38°47' W 084°08'3 1.9
2015-Apr-04 22:33N 38°48' W 084°13'0 0.1
2015-Apr-04 21:33N 38°48' W 084°13'  
Track history (hours):
 
Tides and Currents Weather Stations Pressure Air Temp Water Temp Dewpoint Dewpoint Depression Visibility Wind Speed Wind Dir Waves Ship Positions

Tom Frazier

Owner: American Commercial Lines LLC, Jeffersonville, IN. More information available from US FCC via Universal Licensing System and Coast Guard Vessel Documentation Center.

Last reported at 2015-Apr-09 01:10 UTC. Time now 2015-Apr-18 16:43 UTC.
Position N 38°56' W 084°52'.
Warning: this ship's position is 9 days out of date.

Length 48 m; draft 2.9 m.

MMSI: 367143910.

Date/timePositionNaut miles runAvg speedWind from/ knotsBaromVisibWave heightAir tempDewpointWater temp
2015-Apr-09 01:10N 38°56' W 084°52'9 5.4
2015-Apr-08 23:32N 39°04' W 084°52'6 6.5
2015-Apr-08 22:32N 39°08' W 084°46'4 4.1
2015-Apr-08 21:32N 39°06' W 084°41'0 0.0
2015-Apr-08 20:31N 39°06' W 084°41'0 0.0
2015-Apr-08 19:28N 39°06' W 084°41'0 0.1
2015-Apr-08 18:31N 39°06' W 084°41'0 0.1
2015-Apr-08 17:32N 39°06' W 084°41'0 0.0
2015-Apr-08 16:31N 39°06' W 084°41'0 0.1
2015-Apr-08 15:33N 39°06' W 084°41'0 0.0
2015-Apr-08 14:33N 39°06' W 084°41'3 2.5
2015-Apr-08 13:33N 39°05' W 084°38'4 4.2
2015-Apr-08 12:32N 39°06' W 084°33'5 5.2
2015-Apr-08 11:33N 39°06' W 084°26'6 5.9
2015-Apr-08 10:33N 39°02' W 084°21'6 6.3
2015-Apr-08 09:33N 38°57' W 084°17'6 6.3
2015-Apr-08 08:33N 38°51' W 084°14'4 4.1
2015-Apr-08 07:33N 38°48' W 084°11'0 0.0
2015-Apr-08 06:28N 38°48' W 084°11'0 0.1
2015-Apr-08 05:30N 38°48' W 084°11'0 0.0
2015-Apr-08 04:33N 38°48' W 084°11'0 0.3
2015-Apr-08 03:32N 38°48' W 084°10'3 2.6
2015-Apr-08 02:33N 38°47' W 084°07'9 6.4
2015-Apr-08 01:13N 38°47' W 083°56'4 5.8
2015-Apr-08 00:31N 38°45' W 083°51'77 4.0
2015-Apr-07 05:29N 38°47' W 082°13'5 5.6
2015-Apr-07 04:32N 38°50' W 082°08'0 0.1
2015-Apr-07 03:29N 38°50' W 082°08'0 0.0
2015-Apr-07 02:28N 38°50' W 082°08'0 0.0
2015-Apr-07 01:31N 38°50' W 082°08'1 1.4
2015-Apr-07 00:28N 38°49' W 082°10'1 1.1
2015-Apr-06 23:29N 38°49' W 082°11'3 3.3
2015-Apr-06 22:28N 38°46' W 082°12'53 1.6
2015-Apr-05 13:27N 38°38' W 083°19'3 2.9
2015-Apr-05 12:33N 38°39' W 083°22'3 3.3
2015-Apr-05 11:33N 38°40' W 083°26'3 3.1
2015-Apr-05 10:33N 38°41' W 083°30'10 3.2
2015-Apr-05 07:33N 38°38' W 083°41'4 3.3
2015-Apr-05 06:22N 38°39' W 083°46'3 3.5
2015-Apr-05 05:29N 38°42' W 083°47'4 3.2
2015-Apr-05 04:19N 38°44' W 083°51'3 3.4
2015-Apr-05 03:27N 38°46' W 083°54'11 3.6
2015-Apr-05 00:21N 38°47' W 084°08'3 1.9
2015-Apr-04 22:33N 38°48' W 084°13'0 0.1
2015-Apr-04 21:33N 38°48' W 084°13'  

Dump ship's entire track history